Red Bank, South Carolina
Current Conditions -  °F | °C
As of 11:56 AM on Thursday 23 Oct 2014 (Local Time) from KCAE Reporting Station
Clear Clear  
Wind Chill: 64°   Ceiling: Unl
Heat Index: 64°   Visibility: 10mi
Dew Point: 40°   Wind: 7mph
Humidity: 41%   Direction: NA
Pressure: 30.09"   Gusts: NA
Location:  33.9903°N, 81.2681°W
Report Text: KCAE 231556Z VRB06KT 10SM CLR 18/04 A3009 RMK AO2 SLP187 T01780044
Loading
Personal Weather Stations






























Interactive Weather Map
Tropical Storm Tracking
New forecast layout! Learn more

10-Day Weather Forecast

Advertisements
Track Severe Weather on mobile